sensor_id;sensor_type;location;lat;lon;timestamp;P1;durP1;ratioP1;P2;durP2;ratioP2
10463;SDS011;5279;42.048;24.638;2022-09-01T00:01:03;12.60;;;7.83;;
10463;SDS011;5279;42.048;24.638;2022-09-01T00:03:32;11.17;;;7.80;;
10463;SDS011;5279;42.048;24.638;2022-09-01T00:06:00;14.60;;;8.30;;
10463;SDS011;5279;42.048;24.638;2022-09-01T00:08:29;14.37;;;7.90;;
10463;SDS011;5279;42.048;24.638;2022-09-01T00:10:56;11.80;;;7.27;;
10463;SDS011;5279;42.048;24.638;2022-09-01T00:13:23;11.03;;;7.47;;
10463;SDS011;5279;42.048;24.638;2022-09-01T00:15:50;9.80;;;7.57;;
10463;SDS011;5279;42.048;24.638;2022-09-01T00:18:17;14.83;;;7.50;;
10463;SDS011;5279;42.048;24.638;2022-09-01T00:20:44;11.90;;;7.87;;
10463;SDS011;5279;42.048;24.638;2022-09-01T00:23:10;10.40;;;7.70;;
10463;SDS011;5279;42.048;24.638;2022-09-01T00:25:39;8.23;;;7.50;;
10463;SDS011;5279;42.048;24.638;2022-09-01T00:28:06;12.03;;;7.20;;
10463;SDS011;5279;42.048;24.638;2022-09-01T00:30:33;13.80;;;7.77;;
10463;SDS011;5279;42.048;24.638;2022-09-01T00:33:00;19.67;;;8.23;;
10463;SDS011;5279;42.048;24.638;2022-09-01T00:35:27;10.07;;;7.20;;
10463;SDS011;5279;42.048;24.638;2022-09-01T00:37:54;14.13;;;8.17;;
10463;SDS011;5279;42.048;24.638;2022-09-01T00:40:21;10.40;;;7.70;;
10463;SDS011;5279;42.048;24.638;2022-09-01T00:42:49;11.53;;;7.70;;
10463;SDS011;5279;42.048;24.638;2022-09-01T00:45:18;10.63;;;7.07;;
10463;SDS011;5279;42.048;24.638;2022-09-01T00:47:46;16.87;;;7.50;;
10463;SDS011;5279;42.048;24.638;2022-09-01T00:50:14;10.90;;;7.80;;
10463;SDS011;5279;42.048;24.638;2022-09-01T00:52:44;12.70;;;7.77;;
10463;SDS011;5279;42.048;24.638;2022-09-01T00:55:15;11.97;;;7.97;;
10463;SDS011;5279;42.048;24.638;2022-09-01T00:57:47;9.97;;;7.33;;
10463;SDS011;5279;42.048;24.638;2022-09-01T01:00:16;14.30;;;7.80;;
10463;SDS011;5279;42.048;24.638;2022-09-01T01:02:46;11.33;;;7.40;;
10463;SDS011;5279;42.048;24.638;2022-09-01T01:05:14;9.63;;;7.47;;
10463;SDS011;5279;42.048;24.638;2022-09-01T01:07:41;10.50;;;8.07;;
10463;SDS011;5279;42.048;24.638;2022-09-01T01:10:11;14.70;;;8.20;;
10463;SDS011;5279;42.048;24.638;2022-09-01T01:12:40;10.63;;;6.93;;
10463;SDS011;5279;42.048;24.638;2022-09-01T01:15:08;15.57;;;7.37;;
10463;SDS011;5279;42.048;24.638;2022-09-01T01:17:38;16.90;;;7.30;;
10463;SDS011;5279;42.048;24.638;2022-09-01T01:20:05;9.80;;;7.57;;
10463;SDS011;5279;42.048;24.638;2022-09-01T01:22:54;15.30;;;7.77;;
10463;SDS011;5279;42.048;24.638;2022-09-01T01:25:34;10.47;;;7.57;;
10463;SDS011;5279;42.048;24.638;2022-09-01T01:28:03;11.40;;;7.27;;
10463;SDS011;5279;42.048;24.638;2022-09-01T01:30:33;13.37;;;8.07;;
10463;SDS011;5279;42.048;24.638;2022-09-01T01:33:01;12.90;;;8.00;;
10463;SDS011;5279;42.048;24.638;2022-09-01T01:35:29;16.50;;;7.77;;
10463;SDS011;5279;42.048;24.638;2022-09-01T01:37:58;11.93;;;7.60;;
10463;SDS011;5279;42.048;24.638;2022-09-01T01:40:26;15.90;;;7.97;;
10463;SDS011;5279;42.048;24.638;2022-09-01T01:42:55;14.70;;;8.27;;
10463;SDS011;5279;42.048;24.638;2022-09-01T01:45:23;15.47;;;8.33;;
10463;SDS011;5279;42.048;24.638;2022-09-01T01:47:51;11.37;;;7.43;;
10463;SDS011;5279;42.048;24.638;2022-09-01T01:50:19;11.03;;;7.60;;
10463;SDS011;5279;42.048;24.638;2022-09-01T01:52:46;8.17;;;7.43;;
10463;SDS011;5279;42.048;24.638;2022-09-01T01:55:13;13.17;;;8.10;;
10463;SDS011;5279;42.048;24.638;2022-09-01T01:57:43;9.37;;;7.20;;
10463;SDS011;5279;42.048;24.638;2022-09-01T02:00:16;10.83;;;7.30;;
10463;SDS011;5279;42.048;24.638;2022-09-01T02:02:45;11.70;;;7.73;;
10463;SDS011;5279;42.048;24.638;2022-09-01T02:05:17;12.63;;;8.10;;
10463;SDS011;5279;42.048;24.638;2022-09-01T02:07:47;11.20;;;8.00;;
10463;SDS011;5279;42.048;24.638;2022-09-01T02:10:14;14.40;;;8.17;;
10463;SDS011;5279;42.048;24.638;2022-09-01T02:12:41;11.87;;;7.57;;
10463;SDS011;5279;42.048;24.638;2022-09-01T02:15:08;16.37;;;8.80;;
10463;SDS011;5279;42.048;24.638;2022-09-01T02:17:38;12.43;;;8.10;;
10463;SDS011;5279;42.048;24.638;2022-09-01T02:20:07;11.17;;;8.80;;
10463;SDS011;5279;42.048;24.638;2022-09-01T02:22:34;12.00;;;7.83;;
10463;SDS011;5279;42.048;24.638;2022-09-01T02:25:03;10.47;;;7.87;;
10463;SDS011;5279;42.048;24.638;2022-09-01T02:27:31;13.37;;;8.57;;
10463;SDS011;5279;42.048;24.638;2022-09-01T02:30:03;13.47;;;7.27;;
10463;SDS011;5279;42.048;24.638;2022-09-01T02:32:34;9.83;;;7.60;;
10463;SDS011;5279;42.048;24.638;2022-09-01T02:35:03;9.77;;;7.97;;
10463;SDS011;5279;42.048;24.638;2022-09-01T02:37:34;10.70;;;7.60;;
10463;SDS011;5279;42.048;24.638;2022-09-01T02:40:04;13.07;;;7.53;;
10463;SDS011;5279;42.048;24.638;2022-09-01T02:42:34;11.03;;;7.70;;
10463;SDS011;5279;42.048;24.638;2022-09-01T02:45:05;13.00;;;8.17;;
10463;SDS011;5279;42.048;24.638;2022-09-01T02:47:40;13.23;;;7.83;;
10463;SDS011;5279;42.048;24.638;2022-09-01T02:50:14;9.53;;;7.97;;
10463;SDS011;5279;42.048;24.638;2022-09-01T02:52:43;13.97;;;8.00;;
10463;SDS011;5279;42.048;24.638;2022-09-01T02:55:12;13.97;;;7.97;;
10463;SDS011;5279;42.048;24.638;2022-09-01T02:57:46;17.90;;;8.10;;
10463;SDS011;5279;42.048;24.638;2022-09-01T03:00:14;12.60;;;7.63;;
10463;SDS011;5279;42.048;24.638;2022-09-01T03:02:50;9.13;;;7.13;;
10463;SDS011;5279;42.048;24.638;2022-09-01T03:05:20;12.43;;;7.30;;
10463;SDS011;5279;42.048;24.638;2022-09-01T03:07:52;11.50;;;7.67;;
10463;SDS011;5279;42.048;24.638;2022-09-01T03:10:24;16.17;;;7.87;;
10463;SDS011;5279;42.048;24.638;2022-09-01T03:12:57;13.57;;;8.03;;
10463;SDS011;5279;42.048;24.638;2022-09-01T03:15:26;11.07;;;8.53;;
10463;SDS011;5279;42.048;24.638;2022-09-01T03:17:53;9.47;;;7.87;;
10463;SDS011;5279;42.048;24.638;2022-09-01T03:20:23;12.93;;;8.70;;
10463;SDS011;5279;42.048;24.638;2022-09-01T03:22:50;12.83;;;8.87;;
10463;SDS011;5279;42.048;24.638;2022-09-01T03:25:17;14.43;;;8.50;;
10463;SDS011;5279;42.048;24.638;2022-09-01T03:27:45;11.67;;;7.77;;
10463;SDS011;5279;42.048;24.638;2022-09-01T03:30:12;12.07;;;7.03;;
10463;SDS011;5279;42.048;24.638;2022-09-01T03:32:40;10.17;;;8.13;;
10463;SDS011;5279;42.048;24.638;2022-09-01T03:35:07;12.03;;;7.97;;
10463;SDS011;5279;42.048;24.638;2022-09-01T03:37:35;13.80;;;7.97;;
10463;SDS011;5279;42.048;24.638;2022-09-01T03:40:04;16.80;;;8.20;;
10463;SDS011;5279;42.048;24.638;2022-09-01T03:42:33;14.13;;;8.17;;
10463;SDS011;5279;42.048;24.638;2022-09-01T03:45:00;11.77;;;8.10;;
10463;SDS011;5279;42.048;24.638;2022-09-01T03:47:27;12.13;;;7.77;;
10463;SDS011;5279;42.048;24.638;2022-09-01T03:49:54;14.47;;;8.10;;
10463;SDS011;5279;42.048;24.638;2022-09-01T03:52:22;17.97;;;8.93;;
10463;SDS011;5279;42.048;24.638;2022-09-01T03:54:51;13.37;;;8.60;;
10463;SDS011;5279;42.048;24.638;2022-09-01T03:57:18;13.77;;;8.33;;
10463;SDS011;5279;42.048;24.638;2022-09-01T03:59:46;12.13;;;7.70;;
10463;SDS011;5279;42.048;24.638;2022-09-01T04:02:13;15.07;;;8.70;;
10463;SDS011;5279;42.048;24.638;2022-09-01T04:04:40;14.30;;;8.90;;
10463;SDS011;5279;42.048;24.638;2022-09-01T04:07:07;13.63;;;8.70;;
10463;SDS011;5279;42.048;24.638;2022-09-01T04:09:34;15.23;;;8.70;;
10463;SDS011;5279;42.048;24.638;2022-09-01T04:12:03;11.03;;;8.80;;
10463;SDS011;5279;42.048;24.638;2022-09-01T04:14:33;14.57;;;8.80;;
10463;SDS011;5279;42.048;24.638;2022-09-01T04:17:00;10.93;;;8.53;;
10463;SDS011;5279;42.048;24.638;2022-09-01T04:19:44;10.63;;;7.97;;
10463;SDS011;5279;42.048;24.638;2022-09-01T04:22:11;11.47;;;8.27;;
10463;SDS011;5279;42.048;24.638;2022-09-01T04:24:41;12.23;;;8.30;;
10463;SDS011;5279;42.048;24.638;2022-09-01T04:27:12;14.93;;;8.20;;
10463;SDS011;5279;42.048;24.638;2022-09-01T04:29:42;10.77;;;8.03;;
10463;SDS011;5279;42.048;24.638;2022-09-01T04:32:11;18.00;;;8.40;;
10463;SDS011;5279;42.048;24.638;2022-09-01T04:34:39;11.30;;;8.17;;
10463;SDS011;5279;42.048;24.638;2022-09-01T04:37:07;12.57;;;8.50;;
10463;SDS011;5279;42.048;24.638;2022-09-01T04:39:37;11.43;;;7.63;;
10463;SDS011;5279;42.048;24.638;2022-09-01T04:42:13;13.47;;;7.47;;
10463;SDS011;5279;42.048;24.638;2022-09-01T04:44:43;15.73;;;7.60;;
10463;SDS011;5279;42.048;24.638;2022-09-01T04:47:11;10.13;;;7.23;;
10463;SDS011;5279;42.048;24.638;2022-09-01T04:49:41;14.80;;;7.77;;
10463;SDS011;5279;42.048;24.638;2022-09-01T04:52:09;11.07;;;6.90;;
10463;SDS011;5279;42.048;24.638;2022-09-01T04:54:37;13.27;;;7.47;;
10463;SDS011;5279;42.048;24.638;2022-09-01T04:57:04;10.50;;;7.30;;
10463;SDS011;5279;42.048;24.638;2022-09-01T04:59:33;11.67;;;7.30;;
10463;SDS011;5279;42.048;24.638;2022-09-01T05:02:01;10.67;;;7.57;;
10463;SDS011;5279;42.048;24.638;2022-09-01T05:04:31;10.97;;;6.80;;
10463;SDS011;5279;42.048;24.638;2022-09-01T05:06:59;14.07;;;7.47;;
10463;SDS011;5279;42.048;24.638;2022-09-01T05:09:27;11.40;;;7.53;;
10463;SDS011;5279;42.048;24.638;2022-09-01T05:11:55;8.80;;;6.97;;
10463;SDS011;5279;42.048;24.638;2022-09-01T05:14:25;10.80;;;7.20;;
10463;SDS011;5279;42.048;24.638;2022-09-01T05:16:56;12.10;;;7.20;;
10463;SDS011;5279;42.048;24.638;2022-09-01T05:19:24;11.80;;;6.93;;
10463;SDS011;5279;42.048;24.638;2022-09-01T05:21:53;11.70;;;7.63;;
10463;SDS011;5279;42.048;24.638;2022-09-01T05:24:22;16.97;;;8.00;;
10463;SDS011;5279;42.048;24.638;2022-09-01T05:26:56;14.37;;;7.37;;
10463;SDS011;5279;42.048;24.638;2022-09-01T05:29:24;10.63;;;7.40;;
10463;SDS011;5279;42.048;24.638;2022-09-01T05:31:52;8.00;;;7.30;;
10463;SDS011;5279;42.048;24.638;2022-09-01T05:34:21;9.20;;;7.03;;
10463;SDS011;5279;42.048;24.638;2022-09-01T05:36:52;17.43;;;7.67;;
10463;SDS011;5279;42.048;24.638;2022-09-01T05:39:22;13.80;;;7.60;;
10463;SDS011;5279;42.048;24.638;2022-09-01T05:41:49;12.93;;;7.47;;
10463;SDS011;5279;42.048;24.638;2022-09-01T05:44:18;9.90;;;6.87;;
10463;SDS011;5279;42.048;24.638;2022-09-01T05:46:47;13.20;;;7.00;;
10463;SDS011;5279;42.048;24.638;2022-09-01T05:49:15;12.07;;;7.10;;
10463;SDS011;5279;42.048;24.638;2022-09-01T05:51:44;13.43;;;6.73;;
10463;SDS011;5279;42.048;24.638;2022-09-01T05:54:14;9.10;;;6.63;;
10463;SDS011;5279;42.048;24.638;2022-09-01T05:56:41;13.50;;;7.17;;
10463;SDS011;5279;42.048;24.638;2022-09-01T05:59:09;12.17;;;6.70;;
10463;SDS011;5279;42.048;24.638;2022-09-01T06:01:36;11.73;;;6.53;;
10463;SDS011;5279;42.048;24.638;2022-09-01T06:04:05;9.83;;;6.50;;
10463;SDS011;5279;42.048;24.638;2022-09-01T06:06:35;8.03;;;6.03;;
10463;SDS011;5279;42.048;24.638;2022-09-01T06:09:07;11.17;;;6.10;;
10463;SDS011;5279;42.048;24.638;2022-09-01T06:11:34;10.30;;;6.57;;
10463;SDS011;5279;42.048;24.638;2022-09-01T06:14:02;8.87;;;6.37;;
10463;SDS011;5279;42.048;24.638;2022-09-01T06:16:30;10.33;;;6.53;;
10463;SDS011;5279;42.048;24.638;2022-09-01T06:18:57;9.63;;;6.20;;
10463;SDS011;5279;42.048;24.638;2022-09-01T06:21:25;13.40;;;6.10;;
10463;SDS011;5279;42.048;24.638;2022-09-01T06:23:53;10.87;;;6.13;;
10463;SDS011;5279;42.048;24.638;2022-09-01T06:26:23;9.13;;;5.63;;
10463;SDS011;5279;42.048;24.638;2022-09-01T06:28:53;9.07;;;5.63;;
10463;SDS011;5279;42.048;24.638;2022-09-01T06:31:20;11.10;;;5.57;;
10463;SDS011;5279;42.048;24.638;2022-09-01T06:33:49;10.77;;;5.47;;
10463;SDS011;5279;42.048;24.638;2022-09-01T06:36:17;8.60;;;5.10;;
10463;SDS011;5279;42.048;24.638;2022-09-01T06:38:46;10.77;;;5.23;;
10463;SDS011;5279;42.048;24.638;2022-09-01T06:41:14;11.20;;;6.10;;
10463;SDS011;5279;42.048;24.638;2022-09-01T06:43:45;7.23;;;5.80;;
10463;SDS011;5279;42.048;24.638;2022-09-01T06:46:13;6.60;;;5.90;;
10463;SDS011;5279;42.048;24.638;2022-09-01T06:48:41;14.13;;;5.97;;
10463;SDS011;5279;42.048;24.638;2022-09-01T06:51:12;10.40;;;6.03;;
10463;SDS011;5279;42.048;24.638;2022-09-01T06:53:40;11.97;;;6.60;;
10463;SDS011;5279;42.048;24.638;2022-09-01T06:56:07;10.50;;;5.77;;
10463;SDS011;5279;42.048;24.638;2022-09-01T06:58:37;9.07;;;5.73;;
10463;SDS011;5279;42.048;24.638;2022-09-01T07:01:08;9.10;;;5.50;;
10463;SDS011;5279;42.048;24.638;2022-09-01T07:03:40;6.60;;;5.73;;
10463;SDS011;5279;42.048;24.638;2022-09-01T07:06:08;11.67;;;6.13;;
10463;SDS011;5279;42.048;24.638;2022-09-01T07:08:35;13.63;;;6.20;;
10463;SDS011;5279;42.048;24.638;2022-09-01T07:11:04;11.57;;;5.90;;
10463;SDS011;5279;42.048;24.638;2022-09-01T07:13:33;8.27;;;5.40;;
10463;SDS011;5279;42.048;24.638;2022-09-01T07:16:02;6.57;;;5.60;;
10463;SDS011;5279;42.048;24.638;2022-09-01T07:18:32;8.87;;;5.70;;
10463;SDS011;5279;42.048;24.638;2022-09-01T07:20:59;7.67;;;5.70;;
10463;SDS011;5279;42.048;24.638;2022-09-01T07:23:31;8.47;;;5.53;;
10463;SDS011;5279;42.048;24.638;2022-09-01T07:25:59;7.53;;;6.40;;
10463;SDS011;5279;42.048;24.638;2022-09-01T07:28:31;10.83;;;6.93;;
10463;SDS011;5279;42.048;24.638;2022-09-01T07:30:58;11.27;;;6.40;;
10463;SDS011;5279;42.048;24.638;2022-09-01T07:33:25;11.83;;;6.70;;
10463;SDS011;5279;42.048;24.638;2022-09-01T07:35:55;9.70;;;6.50;;
10463;SDS011;5279;42.048;24.638;2022-09-01T07:38:23;7.63;;;6.10;;
10463;SDS011;5279;42.048;24.638;2022-09-01T07:40:52;9.90;;;6.70;;
10463;SDS011;5279;42.048;24.638;2022-09-01T07:43:20;9.50;;;6.80;;
10463;SDS011;5279;42.048;24.638;2022-09-01T07:45:49;9.10;;;6.23;;
10463;SDS011;5279;42.048;24.638;2022-09-01T07:48:20;9.73;;;6.10;;
10463;SDS011;5279;42.048;24.638;2022-09-01T07:50:49;9.17;;;6.20;;
10463;SDS011;5279;42.048;24.638;2022-09-01T07:53:20;7.60;;;6.30;;
10463;SDS011;5279;42.048;24.638;2022-09-01T07:55:49;9.20;;;6.70;;
10463;SDS011;5279;42.048;24.638;2022-09-01T07:58:17;8.43;;;6.80;;
10463;SDS011;5279;42.048;24.638;2022-09-01T08:00:46;8.77;;;6.10;;
10463;SDS011;5279;42.048;24.638;2022-09-01T08:03:14;8.27;;;6.17;;
10463;SDS011;5279;42.048;24.638;2022-09-01T08:05:42;10.40;;;6.20;;
10463;SDS011;5279;42.048;24.638;2022-09-01T08:08:09;9.30;;;6.87;;
10463;SDS011;5279;42.048;24.638;2022-09-01T08:10:38;7.83;;;6.43;;
10463;SDS011;5279;42.048;24.638;2022-09-01T08:13:06;10.03;;;6.27;;
10463;SDS011;5279;42.048;24.638;2022-09-01T08:15:34;7.93;;;5.67;;
10463;SDS011;5279;42.048;24.638;2022-09-01T08:18:02;9.77;;;6.57;;
10463;SDS011;5279;42.048;24.638;2022-09-01T08:20:29;10.93;;;6.20;;
10463;SDS011;5279;42.048;24.638;2022-09-01T08:22:59;10.87;;;6.60;;
10463;SDS011;5279;42.048;24.638;2022-09-01T08:25:26;9.93;;;6.40;;
10463;SDS011;5279;42.048;24.638;2022-09-01T08:27:55;8.60;;;5.90;;
10463;SDS011;5279;42.048;24.638;2022-09-01T08:30:22;7.88;;;6.40;;
10463;SDS011;5279;42.048;24.638;2022-09-01T08:32:49;10.97;;;5.67;;
10463;SDS011;5279;42.048;24.638;2022-09-01T08:35:16;9.15;;;6.78;;
10463;SDS011;5279;42.048;24.638;2022-09-01T08:37:43;9.70;;;6.85;;
10463;SDS011;5279;42.048;24.638;2022-09-01T08:40:11;8.82;;;7.22;;
10463;SDS011;5279;42.048;24.638;2022-09-01T08:42:49;8.35;;;6.18;;
10463;SDS011;5279;42.048;24.638;2022-09-01T08:45:26;8.10;;;6.50;;
10463;SDS011;5279;42.048;24.638;2022-09-01T08:47:59;7.85;;;6.50;;
10463;SDS011;5279;42.048;24.638;2022-09-01T08:50:31;9.97;;;6.10;;
10463;SDS011;5279;42.048;24.638;2022-09-01T08:53:01;15.75;;;6.40;;
10463;SDS011;5279;42.048;24.638;2022-09-01T08:55:34;14.68;;;6.95;;
10463;SDS011;5279;42.048;24.638;2022-09-01T08:58:05;11.57;;;7.20;;
10463;SDS011;5279;42.048;24.638;2022-09-01T09:00:44;14.57;;;6.55;;
10463;SDS011;5279;42.048;24.638;2022-09-01T09:03:20;9.57;;;6.30;;
10463;SDS011;5279;42.048;24.638;2022-09-01T09:06:01;10.80;;;6.85;;
10463;SDS011;5279;42.048;24.638;2022-09-01T09:08:50;8.20;;;6.38;;
10463;SDS011;5279;42.048;24.638;2022-09-01T09:11:23;12.07;;;6.65;;
10463;SDS011;5279;42.048;24.638;2022-09-01T09:14:04;10.82;;;6.80;;
10463;SDS011;5279;42.048;24.638;2022-09-01T09:16:38;10.73;;;6.80;;
10463;SDS011;5279;42.048;24.638;2022-09-01T09:19:08;10.50;;;6.05;;
10463;SDS011;5279;42.048;24.638;2022-09-01T09:21:37;8.38;;;6.13;;
10463;SDS011;5279;42.048;24.638;2022-09-01T09:24:08;12.77;;;5.90;;
10463;SDS011;5279;42.048;24.638;2022-09-01T09:26:38;8.75;;;6.18;;
10463;SDS011;5279;42.048;24.638;2022-09-01T09:29:05;11.82;;;6.63;;
10463;SDS011;5279;42.048;24.638;2022-09-01T09:31:33;8.82;;;6.22;;
10463;SDS011;5279;42.048;24.638;2022-09-01T09:34:04;9.90;;;5.95;;
10463;SDS011;5279;42.048;24.638;2022-09-01T09:36:42;8.75;;;6.05;;
10463;SDS011;5279;42.048;24.638;2022-09-01T09:39:11;7.38;;;5.72;;
10463;SDS011;5279;42.048;24.638;2022-09-01T09:41:41;6.90;;;5.55;;
10463;SDS011;5279;42.048;24.638;2022-09-01T09:44:15;11.32;;;5.75;;
10463;SDS011;5279;42.048;24.638;2022-09-01T09:46:47;9.45;;;5.25;;
10463;SDS011;5279;42.048;24.638;2022-09-01T09:49:19;9.02;;;5.85;;
10463;SDS011;5279;42.048;24.638;2022-09-01T09:51:49;11.05;;;5.28;;
10463;SDS011;5279;42.048;24.638;2022-09-01T09:54:19;8.68;;;5.45;;
10463;SDS011;5279;42.048;24.638;2022-09-01T09:56:49;10.82;;;5.57;;
10463;SDS011;5279;42.048;24.638;2022-09-01T09:59:30;8.90;;;5.10;;
10463;SDS011;5279;42.048;24.638;2022-09-01T10:01:59;8.88;;;5.20;;
10463;SDS011;5279;42.048;24.638;2022-09-01T10:04:40;13.88;;;5.32;;
10463;SDS011;5279;42.048;24.638;2022-09-01T10:09:50;10.00;;;4.93;;
10463;SDS011;5279;42.048;24.638;2022-09-01T10:12:20;9.45;;;5.13;;
10463;SDS011;5279;42.048;24.638;2022-09-01T10:14:49;12.27;;;5.15;;
10463;SDS011;5279;42.048;24.638;2022-09-01T10:17:20;8.55;;;4.47;;
10463;SDS011;5279;42.048;24.638;2022-09-01T10:19:54;7.63;;;4.68;;
10463;SDS011;5279;42.048;24.638;2022-09-01T10:22:23;10.18;;;4.80;;
10463;SDS011;5279;42.048;24.638;2022-09-01T10:24:51;6.95;;;4.60;;
10463;SDS011;5279;42.048;24.638;2022-09-01T10:27:19;8.55;;;4.57;;
10463;SDS011;5279;42.048;24.638;2022-09-01T10:29:50;8.20;;;5.05;;
10463;SDS011;5279;42.048;24.638;2022-09-01T10:32:23;12.63;;;4.80;;
10463;SDS011;5279;42.048;24.638;2022-09-01T10:34:54;8.57;;;4.68;;
10463;SDS011;5279;42.048;24.638;2022-09-01T10:37:21;6.47;;;4.63;;
10463;SDS011;5279;42.048;24.638;2022-09-01T10:40:09;5.90;;;4.50;;
10463;SDS011;5279;42.048;24.638;2022-09-01T10:42:54;8.35;;;4.20;;
10463;SDS011;5279;42.048;24.638;2022-09-01T10:45:29;8.98;;;4.20;;
10463;SDS011;5279;42.048;24.638;2022-09-01T10:53:57;6.15;;;4.03;;
10463;SDS011;5279;42.048;24.638;2022-09-01T10:56:26;4.45;;;4.05;;
10463;SDS011;5279;42.048;24.638;2022-09-01T10:59:05;8.45;;;4.28;;
10463;SDS011;5279;42.048;24.638;2022-09-01T11:07:31;9.15;;;4.18;;
10463;SDS011;5279;42.048;24.638;2022-09-01T11:10:08;7.00;;;4.20;;
10463;SDS011;5279;42.048;24.638;2022-09-01T11:13:01;7.13;;;4.07;;
10463;SDS011;5279;42.048;24.638;2022-09-01T11:15:48;7.88;;;4.43;;
10463;SDS011;5279;42.048;24.638;2022-09-01T11:18:15;8.23;;;3.92;;
10463;SDS011;5279;42.048;24.638;2022-09-01T11:20:50;9.35;;;4.13;;
10463;SDS011;5279;42.048;24.638;2022-09-01T11:23:23;7.28;;;3.78;;
10463;SDS011;5279;42.048;24.638;2022-09-01T11:25:52;5.30;;;4.00;;
10463;SDS011;5279;42.048;24.638;2022-09-01T11:31:24;8.95;;;4.82;;
10463;SDS011;5279;42.048;24.638;2022-09-01T11:34:00;5.65;;;4.13;;
10463;SDS011;5279;42.048;24.638;2022-09-01T11:36:36;6.30;;;4.00;;
10463;SDS011;5279;42.048;24.638;2022-09-01T11:39:19;8.00;;;4.40;;
10463;SDS011;5279;42.048;24.638;2022-09-01T11:41:55;8.63;;;4.53;;
10463;SDS011;5279;42.048;24.638;2022-09-01T11:44:33;5.63;;;3.95;;
10463;SDS011;5279;42.048;24.638;2022-09-01T11:47:06;6.63;;;4.60;;
10463;SDS011;5279;42.048;24.638;2022-09-01T11:49:36;7.47;;;4.57;;
10463;SDS011;5279;42.048;24.638;2022-09-01T11:52:05;8.90;;;4.10;;
10463;SDS011;5279;42.048;24.638;2022-09-01T11:54:38;8.63;;;4.68;;
10463;SDS011;5279;42.048;24.638;2022-09-01T11:57:16;7.15;;;4.45;;
10463;SDS011;5279;42.048;24.638;2022-09-01T11:59:51;9.57;;;4.60;;
10463;SDS011;5279;42.048;24.638;2022-09-01T12:02:19;9.38;;;4.40;;
10463;SDS011;5279;42.048;24.638;2022-09-01T12:04:49;6.75;;;4.45;;
10463;SDS011;5279;42.048;24.638;2022-09-01T12:07:34;5.72;;;4.28;;
10463;SDS011;5279;42.048;24.638;2022-09-01T12:10:13;7.15;;;4.15;;
10463;SDS011;5279;42.048;24.638;2022-09-01T12:12:42;9.68;;;4.68;;
10463;SDS011;5279;42.048;24.638;2022-09-01T12:15:18;9.50;;;4.57;;
10463;SDS011;5279;42.048;24.638;2022-09-01T12:17:46;5.82;;;4.35;;
10463;SDS011;5279;42.048;24.638;2022-09-01T12:20:23;7.80;;;4.18;;
10463;SDS011;5279;42.048;24.638;2022-09-01T12:22:52;7.00;;;4.75;;
10463;SDS011;5279;42.048;24.638;2022-09-01T12:25:22;9.18;;;4.70;;
10463;SDS011;5279;42.048;24.638;2022-09-01T12:27:51;8.75;;;4.28;;
10463;SDS011;5279;42.048;24.638;2022-09-01T12:30:18;4.85;;;4.18;;
10463;SDS011;5279;42.048;24.638;2022-09-01T12:32:45;7.50;;;4.38;;
10463;SDS011;5279;42.048;24.638;2022-09-01T12:35:14;5.00;;;4.50;;
10463;SDS011;5279;42.048;24.638;2022-09-01T12:37:43;7.32;;;4.43;;
10463;SDS011;5279;42.048;24.638;2022-09-01T12:40:22;5.82;;;4.20;;
10463;SDS011;5279;42.048;24.638;2022-09-01T12:42:51;6.95;;;4.25;;
10463;SDS011;5279;42.048;24.638;2022-09-01T12:45:38;8.52;;;4.85;;
10463;SDS011;5279;42.048;24.638;2022-09-01T12:48:18;7.97;;;4.60;;
10463;SDS011;5279;42.048;24.638;2022-09-01T12:50:49;8.60;;;5.25;;
10463;SDS011;5279;42.048;24.638;2022-09-01T12:53:19;8.07;;;4.75;;
10463;SDS011;5279;42.048;24.638;2022-09-01T12:55:55;6.22;;;4.70;;
10463;SDS011;5279;42.048;24.638;2022-09-01T12:58:26;6.35;;;4.15;;
10463;SDS011;5279;42.048;24.638;2022-09-01T13:00:55;7.22;;;4.70;;
10463;SDS011;5279;42.048;24.638;2022-09-01T13:03:25;7.72;;;4.82;;
10463;SDS011;5279;42.048;24.638;2022-09-01T13:05:54;6.70;;;4.65;;
10463;SDS011;5279;42.048;24.638;2022-09-01T13:08:23;9.43;;;5.22;;
10463;SDS011;5279;42.048;24.638;2022-09-01T13:10:53;8.50;;;5.38;;
10463;SDS011;5279;42.048;24.638;2022-09-01T13:13:24;6.80;;;5.60;;
10463;SDS011;5279;42.048;24.638;2022-09-01T13:15:53;9.40;;;5.60;;
10463;SDS011;5279;42.048;24.638;2022-09-01T13:18:25;8.02;;;5.38;;
10463;SDS011;5279;42.048;24.638;2022-09-01T13:20:53;8.30;;;5.28;;
10463;SDS011;5279;42.048;24.638;2022-09-01T13:23:21;9.55;;;5.72;;
10463;SDS011;5279;42.048;24.638;2022-09-01T13:25:48;8.73;;;5.65;;
10463;SDS011;5279;42.048;24.638;2022-09-01T13:28:16;7.57;;;5.32;;
10463;SDS011;5279;42.048;24.638;2022-09-01T13:30:44;8.32;;;5.10;;
10463;SDS011;5279;42.048;24.638;2022-09-01T13:33:17;7.00;;;5.35;;
10463;SDS011;5279;42.048;24.638;2022-09-01T13:35:44;12.30;;;6.65;;
10463;SDS011;5279;42.048;24.638;2022-09-01T13:38:11;11.90;;;5.78;;
10463;SDS011;5279;42.048;24.638;2022-09-01T13:40:40;6.55;;;5.85;;
10463;SDS011;5279;42.048;24.638;2022-09-01T13:43:07;9.47;;;6.70;;
10463;SDS011;5279;42.048;24.638;2022-09-01T13:45:35;9.30;;;6.53;;
10463;SDS011;5279;42.048;24.638;2022-09-01T13:48:05;7.47;;;6.13;;
10463;SDS011;5279;42.048;24.638;2022-09-01T13:50:33;9.77;;;6.73;;
10463;SDS011;5279;42.048;24.638;2022-09-01T13:53:00;9.70;;;6.93;;
10463;SDS011;5279;42.048;24.638;2022-09-01T13:55:28;9.37;;;6.87;;
10463;SDS011;5279;42.048;24.638;2022-09-01T13:57:56;8.77;;;7.10;;
10463;SDS011;5279;42.048;24.638;2022-09-01T14:00:24;10.37;;;6.97;;
10463;SDS011;5279;42.048;24.638;2022-09-01T14:02:55;9.43;;;7.37;;
10463;SDS011;5279;42.048;24.638;2022-09-01T14:05:26;9.30;;;7.33;;
10463;SDS011;5279;42.048;24.638;2022-09-01T14:07:54;8.67;;;7.03;;
10463;SDS011;5279;42.048;24.638;2022-09-01T14:10:22;11.47;;;7.73;;
10463;SDS011;5279;42.048;24.638;2022-09-01T14:12:50;9.33;;;7.67;;
10463;SDS011;5279;42.048;24.638;2022-09-01T14:15:18;9.00;;;7.07;;
10463;SDS011;5279;42.048;24.638;2022-09-01T14:17:47;9.43;;;7.47;;
10463;SDS011;5279;42.048;24.638;2022-09-01T14:20:21;9.90;;;7.10;;
10463;SDS011;5279;42.048;24.638;2022-09-01T14:22:53;9.50;;;7.83;;
10463;SDS011;5279;42.048;24.638;2022-09-01T14:25:20;11.37;;;7.63;;
10463;SDS011;5279;42.048;24.638;2022-09-01T14:27:48;10.87;;;7.67;;
10463;SDS011;5279;42.048;24.638;2022-09-01T14:30:18;9.70;;;7.33;;
10463;SDS011;5279;42.048;24.638;2022-09-01T14:32:47;9.77;;;7.40;;
10463;SDS011;5279;42.048;24.638;2022-09-01T14:35:15;10.93;;;7.70;;
10463;SDS011;5279;42.048;24.638;2022-09-01T14:37:44;12.53;;;8.50;;
10463;SDS011;5279;42.048;24.638;2022-09-01T14:40:12;7.93;;;7.10;;
10463;SDS011;5279;42.048;24.638;2022-09-01T14:42:40;11.33;;;6.80;;
10463;SDS011;5279;42.048;24.638;2022-09-01T14:45:11;9.50;;;7.60;;
10463;SDS011;5279;42.048;24.638;2022-09-01T14:47:40;10.23;;;7.77;;
10463;SDS011;5279;42.048;24.638;2022-09-01T14:50:08;10.60;;;7.53;;
10463;SDS011;5279;42.048;24.638;2022-09-01T14:52:36;8.40;;;7.47;;
10463;SDS011;5279;42.048;24.638;2022-09-01T14:55:04;8.20;;;7.37;;
10463;SDS011;5279;42.048;24.638;2022-09-01T14:57:32;15.73;;;7.50;;
10463;SDS011;5279;42.048;24.638;2022-09-01T14:59:59;8.40;;;7.20;;
10463;SDS011;5279;42.048;24.638;2022-09-01T15:02:26;10.37;;;7.93;;
10463;SDS011;5279;42.048;24.638;2022-09-01T15:04:53;9.03;;;7.10;;
10463;SDS011;5279;42.048;24.638;2022-09-01T15:07:20;8.10;;;7.00;;
10463;SDS011;5279;42.048;24.638;2022-09-01T15:09:47;9.83;;;7.30;;
10463;SDS011;5279;42.048;24.638;2022-09-01T15:12:15;9.70;;;7.00;;
10463;SDS011;5279;42.048;24.638;2022-09-01T15:14:42;10.70;;;6.93;;